createdAt,value
2017-07-12T05:32:02.092Z,100
2017-07-12T05:32:27.564Z,105
2017-07-12T05:32:53.051Z,110
2017-07-12T05:33:18.529Z,115
2017-07-12T05:33:43.989Z,115
2017-07-12T05:34:09.455Z,120
2017-07-12T05:34:34.924Z,120
2017-07-12T05:35:00.401Z,120
2017-07-12T05:35:25.880Z,120
2017-07-12T05:35:51.370Z,120
2017-07-12T05:36:16.845Z,115
2017-07-12T05:36:42.332Z,110
2017-07-12T05:37:07.789Z,95
2017-07-12T05:37:33.254Z,85
2017-07-12T05:37:58.725Z,80
2017-07-12T05:38:24.212Z,80
2017-07-12T05:38:49.687Z,75
2017-07-12T05:39:15.156Z,75
2017-07-12T05:39:40.631Z,75
2017-07-12T05:40:06.078Z,75
2017-07-12T05:40:31.549Z,70
2017-07-12T05:40:57.019Z,70
2017-07-12T05:41:22.497Z,70
2017-07-12T05:41:47.985Z,70
2017-07-12T05:42:13.456Z,70
2017-07-12T05:42:38.930Z,65
2017-07-12T05:43:04.411Z,65
2017-07-12T05:43:29.878Z,65
2017-07-12T05:43:55.360Z,65
2017-07-12T05:44:20.819Z,65
2017-07-12T05:44:46.289Z,65
2017-07-12T05:45:11.771Z,55
2017-07-12T05:45:37.253Z,50
2017-07-12T05:46:02.798Z,45
2017-07-12T05:46:28.224Z,45
2017-07-12T05:46:53.714Z,40
2017-07-12T05:47:19.199Z,40
2017-07-12T05:47:44.676Z,45
2017-07-12T05:48:10.127Z,50
2017-07-12T05:48:35.620Z,55
2017-07-12T05:49:01.105Z,65
2017-07-12T05:49:26.570Z,75
2017-07-12T05:49:52.054Z,80
2017-07-12T05:50:17.533Z,85
2017-07-12T05:50:43.011Z,85
2017-07-12T05:51:08.461Z,80
2017-07-12T05:51:33.948Z,70
2017-07-12T05:51:59.426Z,65
2017-07-12T05:52:24.886Z,55
2017-07-12T05:52:50.444Z,45
2017-07-12T05:53:15.845Z,40
2017-07-12T05:53:41.321Z,35
2017-07-12T05:54:06.828Z,40
2017-07-12T05:54:32.302Z,40
2017-07-12T05:54:57.798Z,40
2017-07-12T05:55:23.265Z,45
2017-07-12T05:55:48.752Z,55
2017-07-12T05:56:14.271Z,65
2017-07-12T05:56:39.761Z,75
2017-07-12T05:57:05.258Z,80
2017-07-12T05:57:30.779Z,80
2017-07-12T05:57:56.182Z,85
2017-07-12T05:58:21.651Z,95
2017-07-12T05:58:47.144Z,90
2017-07-12T05:59:12.614Z,95
2017-07-12T05:59:38.103Z,90
2017-07-12T06:00:03.596Z,90
2017-07-12T06:00:29.063Z,95
2017-07-12T06:00:54.550Z,95
2017-07-12T06:01:20.040Z,95
2017-07-12T06:01:45.479Z,100
2017-07-12T06:02:10.972Z,105
2017-07-12T06:02:36.424Z,100
2017-07-12T06:03:01.889Z,90
2017-07-12T06:03:27.370Z,80
2017-07-12T06:03:52.852Z,75
2017-07-12T06:04:18.343Z,80
2017-07-12T06:04:43.825Z,75
2017-07-12T06:05:09.299Z,75
2017-07-12T06:05:34.754Z,75
2017-07-12T06:06:00.245Z,75
2017-07-12T06:06:25.728Z,85
2017-07-12T06:06:51.220Z,90
2017-07-12T06:07:16.700Z,90
2017-07-12T06:07:42.199Z,90
2017-07-12T06:08:07.663Z,80
2017-07-12T06:08:33.159Z,65
2017-07-12T06:08:58.657Z,60
2017-07-12T06:09:24.122Z,75
2017-07-12T06:09:49.616Z,80
2017-07-12T06:10:15.083Z,75
2017-07-12T06:10:40.540Z,75
2017-07-12T06:11:05.999Z,75
2017-07-12T06:11:31.537Z,65
2017-07-12T06:11:56.983Z,55
2017-07-12T06:12:22.469Z,55
2017-07-12T06:12:47.960Z,60
2017-07-12T06:13:13.450Z,60
2017-07-12T06:13:38.949Z,70
2017-07-12T06:14:04.451Z,75
2017-07-12T06:14:29.936Z,75
2017-07-12T06:14:55.395Z,75
2017-07-12T06:15:20.892Z,70
2017-07-12T06:15:46.376Z,60
2017-07-12T06:16:11.821Z,65
2017-07-12T06:16:37.299Z,65
2017-07-12T06:17:02.777Z,60
2017-07-12T06:17:28.249Z,65
2017-07-12T06:17:53.721Z,70
2017-07-12T06:18:19.193Z,65
2017-07-12T06:18:44.699Z,65
2017-07-12T06:19:10.171Z,70
2017-07-12T06:19:35.666Z,75
2017-07-12T06:20:01.159Z,75
2017-07-12T06:20:26.651Z,75
2017-07-12T06:20:52.143Z,75
2017-07-12T06:21:17.621Z,75
2017-07-12T06:21:43.089Z,80
2017-07-12T06:22:08.555Z,80
2017-07-12T06:22:34.050Z,80
2017-07-12T06:22:59.533Z,85
2017-07-12T06:23:25.041Z,90
2017-07-12T06:23:50.491Z,90
2017-07-12T06:24:15.976Z,90
2017-07-12T06:24:41.446Z,90
2017-07-12T06:25:06.931Z,85
2017-07-12T06:25:32.422Z,80
2017-07-12T06:25:57.900Z,80
2017-07-12T06:26:23.395Z,75
2017-07-12T06:26:48.889Z,80
2017-07-12T06:27:14.346Z,80
2017-07-12T06:27:39.854Z,75
2017-07-12T06:28:05.327Z,75
2017-07-12T06:28:30.809Z,80
2017-07-12T06:28:56.280Z,80
2017-07-12T06:29:21.785Z,85
2017-07-12T06:29:47.266Z,80
2017-07-12T06:30:12.724Z,85
2017-07-12T06:30:38.211Z,90
2017-07-12T06:31:03.707Z,100
2017-07-12T06:31:29.189Z,110
2017-07-12T06:31:54.661Z,115
2017-07-12T06:32:20.144Z,125
2017-07-12T06:32:45.611Z,130
2017-07-12T06:33:11.107Z,135
2017-07-12T06:33:36.591Z,135
2017-07-12T06:34:02.043Z,140
2017-07-12T06:34:27.541Z,135
2017-07-12T06:34:53.027Z,125
2017-07-12T06:35:18.534Z,115
2017-07-12T06:35:43.997Z,110
2017-07-12T06:36:09.464Z,105
2017-07-12T06:36:34.953Z,100
2017-07-12T06:37:00.411Z,100
2017-07-12T06:37:25.882Z,95
2017-07-12T06:37:51.389Z,95
2017-07-12T06:38:16.898Z,90
2017-07-12T06:38:42.424Z,85
2017-07-12T06:39:07.898Z,80
2017-07-12T06:39:33.389Z,75
2017-07-12T06:39:58.856Z,75
2017-07-12T06:40:24.355Z,75
2017-07-12T06:40:49.877Z,80
2017-07-12T06:41:15.331Z,85
2017-07-12T06:41:40.826Z,90
2017-07-12T06:42:06.299Z,95
2017-07-12T06:42:31.800Z,95
2017-07-12T06:42:57.285Z,95
2017-07-12T06:43:22.765Z,95
2017-07-12T06:43:48.317Z,95
2017-07-12T06:44:13.732Z,95
2017-07-12T06:44:39.194Z,95
2017-07-12T06:45:04.673Z,95
2017-07-12T06:45:30.163Z,95
2017-07-12T06:45:55.633Z,95
2017-07-12T06:46:21.102Z,100
2017-07-12T06:46:46.561Z,100
2017-07-12T06:47:12.038Z,100
2017-07-12T06:47:37.510Z,95
2017-07-12T06:48:02.984Z,90
2017-07-12T06:48:28.455Z,90
2017-07-12T06:48:53.934Z,90
2017-07-12T06:49:19.411Z,85
2017-07-12T06:49:44.893Z,80
2017-07-12T06:50:10.369Z,75
2017-07-12T06:50:35.837Z,75
2017-07-12T06:51:01.327Z,80
2017-07-12T06:51:26.792Z,85
2017-07-12T06:51:52.260Z,90
2017-07-12T06:52:17.730Z,85
2017-07-12T06:52:43.222Z,80
2017-07-12T06:53:08.718Z,80
2017-07-12T06:53:34.203Z,85
2017-07-12T06:53:59.693Z,90
2017-07-12T06:54:25.139Z,90
2017-07-12T06:54:50.614Z,85
2017-07-12T06:55:16.092Z,85
2017-07-12T06:55:41.557Z,80
2017-07-12T06:56:07.007Z,80
2017-07-12T06:56:32.499Z,75
2017-07-12T06:56:57.962Z,70
2017-07-12T06:57:23.435Z,70
2017-07-12T06:57:48.919Z,75
2017-07-12T06:58:14.400Z,85
2017-07-12T06:58:39.920Z,90
2017-07-12T06:59:05.382Z,95
2017-07-12T06:59:30.839Z,95
2017-07-12T06:59:56.340Z,95
2017-07-12T07:00:21.797Z,100
2017-07-12T07:00:47.378Z,100
2017-07-12T07:01:12.867Z,95
2017-07-12T07:01:38.371Z,90
2017-07-12T07:02:03.898Z,90
2017-07-12T07:02:29.343Z,90
2017-07-12T07:02:54.807Z,90
2017-07-12T07:03:20.295Z,95
2017-07-12T07:03:45.797Z,100
2017-07-12T07:04:11.312Z,100
2017-07-12T07:04:36.845Z,105
2017-07-12T07:05:02.319Z,100
2017-07-12T07:05:27.788Z,100
2017-07-12T07:05:53.283Z,105
2017-07-12T07:06:18.768Z,105
2017-07-12T07:06:44.232Z,95
2017-07-12T07:07:09.689Z,85
2017-07-12T07:07:35.157Z,80
2017-07-12T07:08:00.794Z,70
2017-07-12T07:08:26.271Z,60
2017-07-12T07:08:51.763Z,55
2017-07-12T07:09:17.293Z,55
2017-07-12T07:09:42.764Z,55
2017-07-12T07:10:08.255Z,65
2017-07-12T07:10:33.697Z,75
2017-07-12T07:10:59.157Z,80
2017-07-12T07:11:24.657Z,80
2017-07-12T07:11:50.145Z,70
2017-07-12T07:12:15.614Z,60
2017-07-12T07:12:41.097Z,60
2017-07-12T07:13:06.562Z,60
2017-07-12T07:13:32.055Z,60
2017-07-12T07:13:57.525Z,55
2017-07-12T07:14:23.008Z,45
2017-07-12T07:14:48.481Z,30
2017-07-12T07:15:14.153Z,25
2017-07-12T07:15:39.454Z,25
2017-07-12T07:16:04.948Z,30
2017-07-12T07:16:30.458Z,40
2017-07-12T07:16:55.943Z,40
2017-07-12T07:17:21.430Z,40
2017-07-12T07:17:46.904Z,40
2017-07-12T07:18:12.380Z,35
2017-07-12T07:18:37.857Z,35
2017-07-12T07:19:03.337Z,40
2017-07-12T07:19:28.805Z,40
2017-07-12T07:19:54.289Z,35
2017-07-12T07:20:19.769Z,40
2017-07-12T07:20:45.305Z,45
2017-07-12T07:21:10.759Z,50
2017-07-12T07:21:36.242Z,60
2017-07-12T07:22:01.724Z,65
2017-07-12T07:22:27.205Z,70
2017-07-12T07:22:52.681Z,65
2017-07-12T07:23:18.161Z,55
2017-07-12T07:23:43.668Z,50
2017-07-12T07:24:09.151Z,60
2017-07-12T07:24:34.652Z,60
2017-07-12T07:25:00.136Z,60
2017-07-12T07:25:25.620Z,60
2017-07-12T07:25:51.120Z,55
2017-07-12T07:26:16.594Z,60
2017-07-12T07:26:42.068Z,55
2017-07-12T07:27:07.547Z,45
2017-07-12T07:27:33.010Z,40
2017-07-12T07:27:58.454Z,35
2017-07-12T07:28:23.940Z,30
2017-07-12T07:28:49.434Z,25
2017-07-12T07:29:14.892Z,20
2017-07-12T07:29:40.364Z,20
2017-07-12T07:30:05.837Z,20
2017-07-12T07:30:31.275Z,20
2017-07-12T07:30:56.767Z,20
2017-07-12T07:31:22.229Z,20
2017-07-12T07:31:47.709Z,25
2017-07-12T07:32:13.229Z,40
2017-07-12T07:32:38.688Z,50
2017-07-12T07:33:04.231Z,70
2017-07-12T07:33:29.708Z,75
2017-07-12T07:33:55.198Z,75
2017-07-12T07:34:20.678Z,65
2017-07-12T07:34:46.136Z,50
2017-07-12T07:35:11.591Z,50
2017-07-12T07:35:37.067Z,55
2017-07-12T07:36:02.538Z,55
2017-07-12T07:36:28.014Z,50
2017-07-12T07:36:53.480Z,50
2017-07-12T07:37:18.939Z,55
2017-07-12T07:37:44.400Z,50
2017-07-12T07:38:09.897Z,50
2017-07-12T07:38:35.368Z,50
2017-07-12T07:39:00.847Z,50
2017-07-12T07:39:26.317Z,45
2017-07-12T07:39:51.776Z,40
2017-07-12T07:40:17.235Z,40
2017-07-12T07:40:42.684Z,55
2017-07-12T07:41:08.131Z,55
2017-07-12T07:41:33.598Z,55
2017-07-12T07:41:59.046Z,55
2017-07-12T07:42:24.526Z,50
2017-07-12T07:42:50.033Z,40
2017-07-12T07:43:15.491Z,40
2017-07-12T07:43:41.007Z,45
2017-07-12T07:44:06.427Z,50
2017-07-12T07:44:31.943Z,65
2017-07-12T07:44:57.426Z,70
2017-07-12T07:45:22.926Z,60
2017-07-12T07:45:48.433Z,60
2017-07-12T07:46:13.917Z,65
2017-07-12T07:46:39.409Z,65
2017-07-12T07:47:04.904Z,70
2017-07-12T07:47:30.359Z,65
2017-07-12T07:47:55.840Z,70
2017-07-12T07:48:21.319Z,75
2017-07-12T07:48:46.784Z,80
2017-07-12T07:49:12.265Z,75
2017-07-12T07:49:37.727Z,70
2017-07-12T07:50:03.222Z,70
2017-07-12T07:50:28.690Z,70
2017-07-12T07:50:54.149Z,70
2017-07-12T07:51:19.616Z,75
2017-07-12T07:51:45.098Z,75
2017-07-12T07:52:10.595Z,80
2017-07-12T07:52:36.053Z,80
2017-07-12T07:53:01.499Z,65
2017-07-12T07:53:27.005Z,55
2017-07-12T07:53:52.532Z,50
2017-07-12T07:54:17.999Z,40
2017-07-12T07:54:43.471Z,40
2017-07-12T07:55:08.934Z,40
2017-07-12T07:55:34.411Z,40
2017-07-12T07:55:59.881Z,40
2017-07-12T07:56:25.370Z,40
2017-07-12T07:56:50.849Z,45
2017-07-12T07:57:16.320Z,45
2017-07-12T07:57:41.814Z,50
2017-07-12T07:58:07.272Z,60
2017-07-12T07:58:32.712Z,60
2017-07-12T07:58:58.189Z,60
2017-07-12T07:59:23.660Z,50
2017-07-12T07:59:49.143Z,50
2017-07-12T08:00:14.634Z,55
2017-07-12T08:00:40.085Z,55
2017-07-12T08:01:05.578Z,50
2017-07-12T08:01:31.092Z,45
2017-07-12T08:01:56.590Z,40
2017-07-12T08:02:22.035Z,45
2017-07-12T08:02:47.518Z,50
2017-07-12T08:03:13.016Z,45
2017-07-12T08:03:38.513Z,40
2017-07-12T08:04:03.980Z,35
2017-07-12T08:04:29.462Z,30
2017-07-12T08:04:54.936Z,25
2017-07-12T08:05:20.409Z,25
2017-07-12T08:05:45.872Z,25
2017-07-12T08:06:11.340Z,30
2017-07-12T08:06:36.837Z,30
2017-07-12T08:07:02.305Z,30
2017-07-12T08:08:26.299Z,45
2017-07-12T08:08:51.780Z,50
2017-07-12T08:09:17.268Z,65
2017-07-12T08:09:42.741Z,70
2017-07-12T08:10:08.228Z,70
2017-07-12T08:10:33.693Z,70
2017-07-12T08:10:59.172Z,65
2017-07-12T08:11:24.655Z,65
2017-07-12T08:11:50.107Z,60
2017-07-12T08:12:15.566Z,70
2017-07-12T08:12:41.057Z,85
2017-07-12T08:13:06.515Z,95
2017-07-12T08:13:31.998Z,100
2017-07-12T08:13:57.492Z,110
2017-07-12T08:14:22.949Z,125
2017-07-12T08:14:48.429Z,135
2017-07-12T08:15:13.935Z,140
2017-07-12T08:15:39.460Z,125
2017-07-12T08:16:04.921Z,105
2017-07-12T08:16:30.419Z,85
2017-07-12T08:16:55.909Z,70
2017-07-12T08:17:21.391Z,70
2017-07-12T08:17:46.871Z,65
2017-07-12T08:18:12.355Z,60
2017-07-12T08:18:37.835Z,55
2017-07-12T08:19:03.298Z,55
2017-07-12T08:19:28.765Z,50
2017-07-12T08:19:54.237Z,45
2017-07-12T08:20:19.729Z,40
2017-07-12T08:20:45.198Z,40
2017-07-12T08:21:10.631Z,40
2017-07-12T08:21:36.118Z,40
2017-07-12T08:22:01.615Z,40
2017-07-12T08:22:27.095Z,45
2017-07-12T08:22:52.597Z,65
2017-07-12T08:23:18.079Z,75
2017-07-12T08:23:43.558Z,80
2017-07-12T08:24:09.011Z,90
2017-07-12T08:24:34.503Z,100
2017-07-12T08:24:59.948Z,115
2017-07-12T08:25:25.465Z,115
2017-07-12T08:25:50.911Z,115
2017-07-12T08:26:16.364Z,115
2017-07-12T08:26:41.844Z,130
2017-07-12T08:27:07.341Z,145
2017-07-12T08:27:32.802Z,160
2017-07-12T08:27:58.309Z,145
2017-07-12T08:28:23.811Z,130
2017-07-12T08:28:49.303Z,105
2017-07-12T08:29:14.794Z,105
2017-07-12T08:29:40.257Z,120
2017-07-12T08:30:05.756Z,135
2017-07-12T08:30:31.223Z,135
2017-07-12T08:30:56.681Z,150
2017-07-12T08:31:22.178Z,150
2017-07-12T08:31:47.697Z,155
2017-07-12T08:32:13.184Z,145
2017-07-12T08:32:38.661Z,115
2017-07-12T08:33:04.141Z,90
2017-07-12T08:33:29.614Z,70
2017-07-12T08:33:55.091Z,60
2017-07-12T08:34:20.592Z,55
2017-07-12T08:34:46.085Z,50
2017-07-12T08:35:11.569Z,50
2017-07-12T08:35:37.043Z,55
2017-07-12T08:36:02.523Z,90
2017-07-12T08:36:28.057Z,120
2017-07-12T08:36:53.532Z,135
2017-07-12T08:37:19.025Z,145
2017-07-12T08:37:44.495Z,155
2017-07-12T08:38:09.947Z,160
2017-07-12T08:38:35.414Z,155
2017-07-12T08:39:00.901Z,155
2017-07-12T08:39:26.371Z,160
2017-07-12T08:39:51.843Z,175
2017-07-12T08:40:17.350Z,195
2017-07-12T08:40:42.829Z,210
2017-07-12T08:41:08.303Z,225
2017-07-12T08:41:33.797Z,240
2017-07-12T08:41:59.284Z,255
2017-07-12T08:42:24.776Z,265
2017-07-12T08:42:50.236Z,275
2017-07-12T08:43:15.689Z,275
2017-07-12T08:43:41.179Z,270
2017-07-12T08:44:06.648Z,275
2017-07-12T08:44:32.110Z,285
2017-07-12T08:44:57.583Z,275
2017-07-12T08:45:23.039Z,255
2017-07-12T08:45:48.523Z,235
2017-07-12T08:46:14.001Z,220
2017-07-12T08:46:39.486Z,210
2017-07-12T08:47:04.946Z,205
2017-07-12T08:47:30.410Z,195
2017-07-12T08:47:55.877Z,185
2017-07-12T08:48:21.362Z,165
2017-07-12T08:48:46.837Z,155
2017-07-12T08:49:12.327Z,155
2017-07-12T08:49:37.799Z,150
2017-07-12T08:50:03.293Z,145
2017-07-12T08:50:28.717Z,145
2017-07-12T08:50:54.183Z,145
2017-07-12T08:51:19.633Z,150
2017-07-12T08:51:45.154Z,150
2017-07-12T08:52:10.655Z,145
2017-07-12T08:52:36.099Z,135
2017-07-12T08:53:01.590Z,135
2017-07-12T08:53:27.078Z,120
2017-07-12T08:54:50.548Z,100
2017-07-12T08:55:16.045Z,95
2017-07-12T08:55:41.527Z,90
2017-07-12T08:56:07.011Z,75
2017-07-12T08:56:32.500Z,60
2017-07-12T08:56:57.976Z,50
2017-07-12T08:57:23.446Z,50
2017-07-12T08:57:48.945Z,50
2017-07-12T08:58:14.442Z,50
2017-07-12T08:58:39.941Z,50
2017-07-12T08:59:05.400Z,55
2017-07-12T08:59:30.879Z,65
2017-07-12T08:59:56.332Z,70
2017-07-12T09:00:21.805Z,80
2017-07-12T09:00:47.289Z,80
2017-07-12T09:01:12.735Z,75
2017-07-12T09:01:38.207Z,70
2017-07-12T09:02:03.687Z,65
2017-07-12T09:02:29.142Z,60
2017-07-12T09:02:54.595Z,60
2017-07-12T09:03:20.088Z,55
2017-07-12T09:03:45.553Z,55
2017-07-12T09:04:11.044Z,55
2017-07-12T09:04:36.520Z,60
2017-07-12T09:05:01.969Z,65
2017-07-12T09:05:27.463Z,65
2017-07-12T09:05:52.920Z,65
2017-07-12T09:06:18.414Z,60
2017-07-12T09:06:43.868Z,60
2017-07-12T09:07:09.344Z,60
2017-07-12T09:07:34.812Z,60
2017-07-12T09:08:00.277Z,55
2017-07-12T09:08:25.781Z,50
2017-07-12T09:08:51.251Z,50
2017-07-12T09:09:16.731Z,50
2017-07-12T09:09:42.213Z,50
2017-07-12T09:10:07.703Z,50
2017-07-12T09:10:33.157Z,55
2017-07-12T09:10:58.636Z,55
2017-07-12T09:11:24.117Z,55
2017-07-12T09:11:49.584Z,55
2017-07-12T09:12:15.059Z,50
2017-07-12T09:12:40.550Z,50
2017-07-12T09:13:06.036Z,50
2017-07-12T09:13:31.527Z,50
2017-07-12T09:13:57.005Z,50
2017-07-12T09:14:22.479Z,50
2017-07-12T09:14:47.946Z,50
2017-07-12T09:15:13.424Z,50
2017-07-12T09:15:38.901Z,45
2017-07-12T09:16:04.367Z,45
2017-07-12T09:16:29.821Z,50
2017-07-12T09:16:55.294Z,50
2017-07-12T09:17:20.769Z,50
2017-07-12T09:17:46.235Z,50
2017-07-12T09:18:11.723Z,45
2017-07-12T09:18:37.197Z,45
2017-07-12T09:19:02.679Z,40
2017-07-12T09:19:28.154Z,40
2017-07-12T09:19:53.641Z,40
2017-07-12T09:20:19.113Z,45
2017-07-12T09:20:44.632Z,45
2017-07-12T09:21:10.096Z,45
2017-07-12T09:21:35.530Z,45
2017-07-12T09:22:01.030Z,45
2017-07-12T09:22:26.520Z,40
2017-07-12T09:22:52.012Z,35
2017-07-12T09:23:17.502Z,35
2017-07-12T09:23:42.997Z,35
2017-07-12T09:24:08.470Z,35
2017-07-12T09:33:20.734Z,70
2017-07-12T09:33:46.224Z,70
2017-07-12T09:34:11.691Z,70
2017-07-12T09:34:37.172Z,65
2017-07-12T09:35:02.656Z,65
2017-07-12T09:35:28.164Z,60
2017-07-12T09:35:53.640Z,60
2017-07-12T09:36:19.131Z,55
2017-07-12T09:36:44.574Z,50
2017-07-12T09:37:10.064Z,45
2017-07-12T09:37:35.594Z,50
2017-07-12T09:38:01.117Z,55
2017-07-12T09:38:26.588Z,55
2017-07-12T09:38:52.117Z,50
2017-07-12T09:39:17.541Z,40
2017-07-12T09:39:43.021Z,35
2017-07-12T09:40:08.494Z,35
2017-07-12T09:40:33.993Z,35
2017-07-12T09:40:59.544Z,30
2017-07-12T09:41:25.052Z,30
2017-07-12T09:41:50.562Z,45
2017-07-12T09:42:16.086Z,60
2017-07-12T09:42:41.588Z,65
2017-07-12T09:43:07.029Z,60
2017-07-12T09:43:32.508Z,55
2017-07-12T09:43:57.997Z,55
2017-07-12T09:44:23.484Z,50
2017-07-12T09:44:48.955Z,40
2017-07-12T09:45:14.479Z,40
2017-07-12T09:45:39.951Z,40
2017-07-12T09:46:05.463Z,40
2017-07-12T09:46:30.980Z,45
2017-07-12T09:46:56.470Z,45
2017-07-12T09:47:21.957Z,50
2017-07-12T09:47:47.458Z,55
2017-07-12T09:48:12.936Z,60
2017-07-12T09:48:38.405Z,65
2017-07-12T09:49:03.931Z,65
2017-07-12T09:49:29.437Z,60
2017-07-12T09:49:54.906Z,60
2017-07-12T09:50:20.411Z,55
2017-07-12T09:50:45.884Z,55
2017-07-12T09:51:11.427Z,45
2017-07-12T09:51:36.895Z,40
2017-07-12T09:52:02.363Z,35
2017-07-12T09:52:27.870Z,30
2017-07-12T09:52:53.398Z,25
2017-07-12T09:53:18.913Z,25
2017-07-12T09:53:44.409Z,20
2017-07-12T09:54:09.974Z,20
2017-07-12T09:54:35.440Z,25
2017-07-12T09:55:00.892Z,25
2017-07-12T09:55:26.430Z,25
2017-07-12T09:55:51.870Z,25
2017-07-12T09:56:17.394Z,35
2017-07-12T09:56:42.880Z,40
2017-07-12T09:57:08.354Z,40
2017-07-12T09:57:33.827Z,45
2017-07-12T09:57:59.340Z,50
2017-07-12T09:58:24.839Z,60
2017-07-12T09:58:50.260Z,65
2017-07-12T09:59:15.774Z,70
2017-07-12T09:59:41.267Z,75
2017-07-12T10:00:06.787Z,85
2017-07-12T10:00:32.247Z,95
2017-07-12T10:00:57.728Z,105
2017-07-12T10:01:23.247Z,110
2017-07-12T10:01:48.741Z,115
2017-07-12T10:02:14.227Z,110
2017-07-12T10:02:39.748Z,110
2017-07-12T10:03:05.217Z,125
2017-07-12T10:03:30.725Z,145
2017-07-12T10:03:56.206Z,170
2017-07-12T10:04:21.707Z,185
2017-07-12T10:04:47.158Z,195
2017-07-12T10:05:12.664Z,200
2017-07-12T10:05:38.132Z,200
2017-07-12T10:06:03.603Z,185
2017-07-12T10:06:29.077Z,155
2017-07-12T10:06:54.538Z,135
2017-07-12T10:07:20.005Z,130
2017-07-12T10:07:45.485Z,145
2017-07-12T10:08:10.960Z,155
2017-07-12T10:08:36.452Z,155
2017-07-12T10:09:01.935Z,150
2017-07-12T10:09:27.424Z,150
2017-07-12T10:09:52.913Z,150
2017-07-12T10:10:18.387Z,180
2017-07-12T10:10:43.838Z,205
2017-07-12T10:11:09.384Z,230
2017-07-12T10:11:34.862Z,220
2017-07-12T10:12:00.343Z,185
2017-07-12T10:12:25.803Z,170
2017-07-12T10:12:51.287Z,180
2017-07-12T10:13:16.781Z,205
2017-07-12T10:13:42.240Z,220
2017-07-12T10:14:07.708Z,220
2017-07-12T10:14:33.190Z,205
2017-07-12T10:14:58.671Z,200
2017-07-12T10:15:24.163Z,185
2017-07-12T10:15:49.649Z,175
2017-07-12T10:16:15.152Z,160
2017-07-12T10:16:40.594Z,155
2017-07-12T10:17:06.070Z,150
2017-07-12T10:17:31.547Z,145
2017-07-12T10:17:57.044Z,135
2017-07-12T10:18:22.522Z,125
2017-07-12T10:18:47.988Z,120
2017-07-12T10:19:13.476Z,115
2017-07-12T10:19:38.983Z,110
2017-07-12T10:20:04.449Z,105
2017-07-12T10:20:29.929Z,95
2017-07-12T10:20:55.392Z,90
2017-07-12T10:21:20.876Z,85
2017-07-12T10:21:46.332Z,75
2017-07-12T10:22:11.814Z,65
2017-07-12T10:22:37.300Z,60
2017-07-12T10:23:02.798Z,60
2017-07-12T10:23:28.277Z,65
2017-07-12T10:23:53.747Z,60
2017-07-12T10:24:19.222Z,45
2017-07-12T10:24:44.696Z,40
2017-07-12T10:25:10.156Z,35
2017-07-12T10:25:35.648Z,30
2017-07-12T10:26:01.125Z,30
2017-07-12T10:26:26.610Z,30
2017-07-12T10:26:52.088Z,30
2017-07-12T10:27:17.628Z,25
2017-07-12T10:27:43.079Z,25
2017-07-12T10:28:08.569Z,30
2017-07-12T10:28:34.046Z,30
2017-07-12T10:28:59.516Z,30
2017-07-12T10:29:24.987Z,25
2017-07-12T10:29:50.461Z,25
2017-07-12T10:30:15.935Z,25
2017-07-12T10:30:41.420Z,20
2017-07-12T10:31:06.914Z,20
2017-07-12T10:31:32.385Z,20
2017-07-12T10:31:57.829Z,20
2017-07-12T10:32:23.303Z,20
2017-07-12T10:32:48.802Z,20
2017-07-12T10:33:14.267Z,20
2017-07-12T10:33:39.738Z,15
2017-07-12T10:34:05.196Z,20
2017-07-12T10:34:30.669Z,20
2017-07-12T10:34:56.132Z,25
2017-07-12T10:35:21.628Z,25
2017-07-12T10:35:47.097Z,25
2017-07-12T10:36:12.568Z,20
2017-07-12T10:36:38.018Z,20
2017-07-12T10:37:03.486Z,20
2017-07-12T10:37:28.947Z,20
2017-07-12T10:37:54.411Z,20
2017-07-12T10:38:19.898Z,20
2017-07-12T10:38:45.351Z,20
2017-07-12T10:39:10.815Z,20
2017-07-12T10:39:36.314Z,25
2017-07-12T10:40:01.788Z,20
2017-07-12T10:40:27.239Z,20
2017-07-12T10:40:52.711Z,20
2017-07-12T10:41:18.221Z,25
2017-07-12T10:41:43.690Z,25
2017-07-12T10:42:09.176Z,30
2017-07-12T10:42:34.637Z,35
2017-07-12T10:43:00.103Z,40
2017-07-12T10:43:25.571Z,50
2017-07-12T10:43:51.046Z,55
2017-07-12T10:44:16.516Z,55
2017-07-12T10:44:41.976Z,55
2017-07-12T10:45:07.458Z,55
2017-07-12T10:45:32.961Z,55
2017-07-12T10:45:58.433Z,55
2017-07-12T10:46:23.906Z,55
2017-07-12T10:46:49.404Z,55
2017-07-12T10:47:14.883Z,55
2017-07-12T10:47:40.358Z,55
2017-07-12T10:48:05.832Z,55
2017-07-12T10:48:31.303Z,55
2017-07-12T10:48:56.773Z,50
2017-07-12T10:49:22.250Z,45
2017-07-12T10:49:47.741Z,45
2017-07-12T10:50:13.213Z,45
2017-07-12T10:50:38.711Z,40
2017-07-12T10:51:04.182Z,40
2017-07-12T10:51:29.670Z,45
2017-07-12T10:51:55.145Z,40
2017-07-12T10:52:20.647Z,35
2017-07-12T10:52:46.118Z,40
2017-07-12T10:53:11.614Z,40
2017-07-12T10:53:37.069Z,45
2017-07-12T10:54:02.544Z,50
2017-07-12T10:54:28.007Z,45
2017-07-12T10:54:53.458Z,45
2017-07-12T10:55:18.932Z,50
2017-07-12T10:55:44.390Z,45
2017-07-12T10:56:09.856Z,50
2017-07-12T10:56:35.335Z,45
2017-07-12T10:57:00.814Z,40
2017-07-12T10:57:26.303Z,50
2017-07-12T10:57:51.782Z,55
2017-07-12T10:58:17.281Z,55
2017-07-12T10:58:42.760Z,60
2017-07-12T10:59:08.257Z,65
2017-07-12T10:59:33.731Z,75
2017-07-12T10:59:59.191Z,70
2017-07-12T11:00:24.655Z,70
2017-07-12T11:00:50.147Z,80
2017-07-12T11:01:15.659Z,85
2017-07-12T11:01:41.126Z,90
2017-07-12T11:02:06.585Z,95
2017-07-12T11:02:32.057Z,100
2017-07-12T11:02:57.558Z,100
2017-07-12T11:03:23.031Z,105
2017-07-12T11:03:48.516Z,110
2017-07-12T11:04:13.977Z,120
2017-07-12T11:04:39.451Z,130
2017-07-12T11:05:04.882Z,125
2017-07-12T11:05:30.359Z,130
2017-07-12T11:05:55.851Z,125
2017-07-12T11:06:21.344Z,115
2017-07-12T11:06:46.835Z,110
2017-07-12T11:07:12.327Z,95
2017-07-12T11:07:37.791Z,90
2017-07-12T11:08:03.246Z,85
2017-07-12T11:08:28.702Z,80
2017-07-12T11:08:54.186Z,75
2017-07-12T11:09:19.674Z,85
2017-07-12T11:09:45.159Z,85
2017-07-12T11:10:10.632Z,75
2017-07-12T11:10:36.122Z,80
2017-07-12T11:11:01.586Z,85
2017-07-12T11:11:27.091Z,85
2017-07-12T11:11:52.540Z,105
2017-07-12T11:12:18.019Z,120
2017-07-12T11:12:43.516Z,115
2017-07-12T11:13:09.005Z,115
2017-07-12T11:13:34.485Z,120
2017-07-12T11:14:00.019Z,110
2017-07-12T11:14:25.504Z,100
2017-07-12T11:14:50.992Z,95
2017-07-12T11:15:16.456Z,85
2017-07-12T11:15:41.945Z,100
2017-07-12T11:16:07.415Z,90
2017-07-12T11:16:32.853Z,85
2017-07-12T11:16:58.357Z,115
2017-07-12T11:17:23.823Z,130
2017-07-12T11:17:49.292Z,125
2017-07-12T11:18:14.799Z,120
2017-07-12T11:18:40.306Z,110
2017-07-12T11:19:05.774Z,115
2017-07-12T11:19:31.266Z,105
2017-07-12T11:19:56.786Z,100
2017-07-12T11:20:22.266Z,105
2017-07-12T11:20:47.723Z,105
2017-07-12T11:21:13.192Z,115
2017-07-12T11:21:38.664Z,110
2017-07-12T11:22:04.131Z,110
2017-07-12T11:22:29.599Z,110
2017-07-12T11:22:55.056Z,110
2017-07-12T11:23:20.565Z,105
2017-07-12T11:23:46.029Z,105
2017-07-12T11:24:11.505Z,105
2017-07-12T11:24:36.974Z,115
2017-07-12T11:25:02.456Z,120
2017-07-12T11:25:27.898Z,115
2017-07-12T11:25:53.364Z,115
2017-07-12T11:26:18.831Z,110
2017-07-12T11:26:44.369Z,110
2017-07-12T11:27:09.838Z,105
2017-07-12T11:27:35.304Z,100
2017-07-12T11:28:00.764Z,95
2017-07-12T11:28:26.254Z,90
2017-07-12T11:28:51.732Z,90
2017-07-12T11:29:17.212Z,85
2017-07-12T11:29:42.645Z,85
2017-07-12T11:30:08.116Z,80
2017-07-12T11:30:33.609Z,80
2017-07-12T11:30:59.099Z,80
2017-07-12T11:31:24.598Z,80
2017-07-12T11:31:50.080Z,80
2017-07-12T11:32:15.557Z,80
2017-07-12T11:32:41.048Z,80
2017-07-12T11:33:06.532Z,80
2017-07-12T11:33:31.995Z,85
2017-07-12T11:33:57.483Z,85
2017-07-12T11:34:22.953Z,85
2017-07-12T11:34:48.419Z,85
2017-07-12T11:35:13.905Z,90
2017-07-12T11:35:39.377Z,95
2017-07-12T11:36:04.870Z,100
2017-07-12T11:36:30.337Z,105
2017-07-12T11:36:55.805Z,110
2017-07-12T11:37:21.275Z,110
2017-07-12T11:37:46.780Z,115
2017-07-12T11:38:12.266Z,120
2017-07-12T11:38:37.745Z,120
2017-07-12T11:39:03.228Z,120
2017-07-12T11:39:28.708Z,115
2017-07-12T11:39:54.185Z,115
2017-07-12T11:40:19.673Z,110
2017-07-12T11:40:45.181Z,110
2017-07-12T11:41:10.673Z,115
2017-07-12T11:41:36.180Z,110
2017-07-12T11:42:01.648Z,115
2017-07-12T11:42:27.103Z,110